createdAt,value
2019-03-16T00:02:06.643Z,7.33
2019-03-16T00:04:36.600Z,7.51
2019-03-16T00:07:06.618Z,7.51
2019-03-16T00:09:36.362Z,7.37
2019-03-16T00:12:06.102Z,7.37
2019-03-16T00:14:36.510Z,7.45
2019-03-16T00:17:06.194Z,7.45
2019-03-16T00:19:35.961Z,7.53
2019-03-16T00:22:08.008Z,7.47
2019-03-16T00:24:37.690Z,7.47
2019-03-16T00:27:07.421Z,7.48
2019-03-16T00:29:37.291Z,7.59
2019-03-16T00:32:13.328Z,7.59
2019-03-16T00:34:38.646Z,7.44
2019-03-16T00:37:08.416Z,7.43
2019-03-16T00:39:38.879Z,7.51
2019-03-16T00:42:08.761Z,7.58
2019-03-16T00:44:39.572Z,7.58
2019-03-16T00:47:09.480Z,7.56
2019-03-16T00:49:39.609Z,7.65
2019-03-16T00:52:09.968Z,7.38
2019-03-16T00:54:39.780Z,7.40
2019-03-16T00:57:09.530Z,7.37
2019-03-16T00:59:39.262Z,7.27
2019-03-16T01:02:08.981Z,7.26
2019-03-16T01:04:38.847Z,7.17
2019-03-16T01:07:08.692Z,7.18
2019-03-16T01:09:38.822Z,7.26
2019-03-16T01:12:09.196Z,7.06
2019-03-16T01:14:38.943Z,7.06
2019-03-16T01:17:08.605Z,7.02
2019-03-16T01:19:38.299Z,6.95
2019-03-16T01:22:07.839Z,6.93
2019-03-16T01:24:37.448Z,6.73
2019-03-16T01:27:07.247Z,6.73
2019-03-16T01:29:37.037Z,6.69
2019-03-16T01:32:06.810Z,6.63
2019-03-16T01:34:37.142Z,6.61
2019-03-16T01:37:06.765Z,6.61
2019-03-16T01:39:36.660Z,6.66
2019-03-16T01:42:06.396Z,6.66
2019-03-16T01:44:36.132Z,6.73
2019-03-16T01:47:06.108Z,6.73
2019-03-16T01:49:35.898Z,6.71
2019-03-16T01:52:05.762Z,6.71
2019-03-16T01:54:35.489Z,6.61
2019-03-16T01:57:05.266Z,6.55
2019-03-16T01:59:34.996Z,6.55
2019-03-16T02:02:05.149Z,6.62
2019-03-16T02:04:35.103Z,6.65
2019-03-16T02:07:04.908Z,6.65
2019-03-16T02:09:34.706Z,6.46
2019-03-16T02:12:05.129Z,6.66
2019-03-16T02:14:34.978Z,6.61
2019-03-16T02:17:04.587Z,6.61
2019-03-16T02:19:35.958Z,6.50
2019-03-16T02:22:05.962Z,6.50
2019-03-16T02:24:35.771Z,6.49
2019-03-16T02:27:06.082Z,6.54
2019-03-16T02:29:36.099Z,6.51
2019-03-16T02:32:07.515Z,6.53
2019-03-16T02:34:37.376Z,6.60
2019-03-16T02:37:07.258Z,6.44
2019-03-16T02:39:36.914Z,6.38
2019-03-16T02:42:07.014Z,6.38
2019-03-16T02:44:36.913Z,6.59
2019-03-16T02:47:06.850Z,6.56
2019-03-16T02:49:36.544Z,6.56
2019-03-16T02:52:06.231Z,6.47
2019-03-16T02:54:35.968Z,6.38
2019-03-16T02:57:06.063Z,6.33
2019-03-16T02:59:35.800Z,6.47
2019-03-16T03:02:05.877Z,6.50
2019-03-16T03:04:35.998Z,6.50
2019-03-16T03:07:05.645Z,6.62
2019-03-16T03:09:35.251Z,6.41
2019-03-16T03:12:04.961Z,6.41
2019-03-16T03:14:36.703Z,6.55
2019-03-16T03:17:06.490Z,6.39
2019-03-16T03:19:36.781Z,6.44
2019-03-16T03:22:06.638Z,6.61
2019-03-16T03:24:36.416Z,6.57
2019-03-16T03:27:06.165Z,6.58
2019-03-16T03:29:35.842Z,6.60
2019-03-16T03:32:05.663Z,6.58
2019-03-16T03:34:35.979Z,6.54
2019-03-16T03:37:05.790Z,6.30
2019-03-16T03:39:35.635Z,6.46
2019-03-16T03:42:05.387Z,6.45
2019-03-16T03:44:35.047Z,6.39
2019-03-16T03:47:05.049Z,6.39
2019-03-16T03:49:35.537Z,6.67
2019-03-16T03:52:05.387Z,6.67
2019-03-16T03:54:35.222Z,6.58
2019-03-16T03:57:04.852Z,6.53
2019-03-16T03:59:34.445Z,6.41
2019-03-16T04:02:04.531Z,6.45
2019-03-16T04:04:34.253Z,6.45
2019-03-16T04:07:03.890Z,6.63
2019-03-16T04:09:34.431Z,6.56
2019-03-16T04:12:04.258Z,6.56
2019-03-16T04:14:34.047Z,6.56
2019-03-16T04:17:03.810Z,6.74
2019-03-16T04:19:33.455Z,6.74
2019-03-16T04:22:03.296Z,6.67
2019-03-16T04:24:33.168Z,6.73
2019-03-16T04:27:15.156Z,6.72
2019-03-16T04:29:34.189Z,6.62
2019-03-16T04:32:04.450Z,6.63
2019-03-16T04:34:34.684Z,6.67
2019-03-16T04:37:04.314Z,6.67
2019-03-16T04:39:34.312Z,6.73
2019-03-16T04:42:04.081Z,6.71
2019-03-16T04:44:34.150Z,6.64
2019-03-16T04:47:03.770Z,6.62
2019-03-16T04:49:33.589Z,6.62
2019-03-16T04:52:03.713Z,6.60
2019-03-16T04:54:33.545Z,6.60
2019-03-16T04:57:03.373Z,6.55
2019-03-16T04:59:33.249Z,6.61
2019-03-16T05:02:02.962Z,6.61
2019-03-16T05:04:42.331Z,6.69
2019-03-16T05:07:04.560Z,6.71
2019-03-16T05:09:34.367Z,6.74
2019-03-16T05:12:04.420Z,6.74
2019-03-16T05:14:34.794Z,6.80
2019-03-16T05:17:04.368Z,6.80
2019-03-16T05:19:34.136Z,6.91
2019-03-16T05:22:03.957Z,6.92
2019-03-16T05:24:33.669Z,6.92
2019-03-16T05:27:03.375Z,6.85
2019-03-16T05:29:34.077Z,6.80
2019-03-16T05:32:03.677Z,6.74
2019-03-16T05:34:33.348Z,6.89
2019-03-16T05:37:03.186Z,6.89
2019-03-16T05:39:33.142Z,6.80
2019-03-16T05:42:05.214Z,6.84
2019-03-16T05:44:34.759Z,6.84
2019-03-16T05:47:04.520Z,6.78
2019-03-16T05:49:34.593Z,6.81
2019-03-16T05:52:04.514Z,6.82
2019-03-16T05:54:34.894Z,6.82
2019-03-16T05:57:04.751Z,6.97
2019-03-16T05:59:34.675Z,6.79
2019-03-16T06:02:04.698Z,6.87
2019-03-16T06:04:34.361Z,6.94
2019-03-16T06:07:04.402Z,6.90
2019-03-16T06:09:34.241Z,6.90
2019-03-16T06:12:04.547Z,6.72
2019-03-16T06:14:34.390Z,6.63
2019-03-16T06:17:05.344Z,6.60
2019-03-16T06:19:35.581Z,6.82
2019-03-16T06:22:05.548Z,6.76
2019-03-16T06:24:35.745Z,6.82
2019-03-16T06:27:05.576Z,6.82
2019-03-16T06:29:35.260Z,6.81
2019-03-16T06:32:04.943Z,6.81
2019-03-16T06:34:36.086Z,6.84
2019-03-16T06:37:05.865Z,6.84
2019-03-16T06:39:35.461Z,6.87
2019-03-16T06:42:05.428Z,6.82
2019-03-16T06:44:35.102Z,6.82
2019-03-16T06:47:04.870Z,6.86
2019-03-16T06:49:36.085Z,6.85
2019-03-16T06:52:05.821Z,6.74
2019-03-16T06:54:35.641Z,6.74
2019-03-16T06:57:05.291Z,6.84
2019-03-16T06:59:35.193Z,7.02
2019-03-16T07:02:04.957Z,7.02
2019-03-16T07:04:35.234Z,6.98
2019-03-16T07:07:05.133Z,6.94
2019-03-16T07:09:34.994Z,6.96
2019-03-16T07:12:04.707Z,7.09
2019-03-16T07:14:35.093Z,7.09
2019-03-16T07:17:04.851Z,7.02
2019-03-16T07:19:34.343Z,7.09
2019-03-16T07:22:04.554Z,7.09
2019-03-16T07:24:34.271Z,7.17
2019-03-16T07:27:03.949Z,7.17
2019-03-16T07:29:33.815Z,7.28
2019-03-16T07:32:03.483Z,7.41
2019-03-16T07:34:33.428Z,7.42
2019-03-16T07:37:03.386Z,7.42
2019-03-16T07:39:33.203Z,7.48
2019-03-16T07:42:02.863Z,7.64
2019-03-16T07:44:32.847Z,7.67
2019-03-16T07:47:02.728Z,7.67
2019-03-16T07:49:32.485Z,7.73
2019-03-16T07:52:03.635Z,7.73
2019-03-16T07:54:33.465Z,7.93
2019-03-16T07:57:03.131Z,7.92
2019-03-16T07:59:32.869Z,8.01
2019-03-16T08:02:02.540Z,8.08
2019-03-16T08:04:32.373Z,7.99
2019-03-16T08:07:02.345Z,8.18
2019-03-16T08:09:32.701Z,8.23
2019-03-16T08:12:02.544Z,8.20
2019-03-16T08:14:32.351Z,8.30
2019-03-16T08:17:02.406Z,8.28
2019-03-16T08:19:32.233Z,8.41
2019-03-16T08:22:03.659Z,8.47
2019-03-16T08:24:33.863Z,8.52
2019-03-16T08:27:03.706Z,8.60
2019-03-16T08:29:33.348Z,8.60
2019-03-16T08:32:03.420Z,8.62
2019-03-16T08:34:33.481Z,8.62
2019-03-16T08:37:03.744Z,8.84
2019-03-16T08:39:34.099Z,8.85
2019-03-16T08:42:03.896Z,8.72
2019-03-16T08:44:33.849Z,8.66
2019-03-16T08:47:04.191Z,8.66
2019-03-16T08:49:33.945Z,8.77
2019-03-16T08:52:03.863Z,8.67
2019-03-16T08:54:34.186Z,8.76
2019-03-16T08:57:04.622Z,8.85
2019-03-16T08:59:34.591Z,8.85
2019-03-16T09:02:05.127Z,8.91
2019-03-16T09:04:35.380Z,8.88
2019-03-16T09:07:06.408Z,8.93
2019-03-16T09:09:36.869Z,8.93
2019-03-16T09:12:06.747Z,8.86
2019-03-16T09:14:37.042Z,8.89
2019-03-16T09:17:08.991Z,8.83
2019-03-16T09:19:38.244Z,8.83
2019-03-16T09:22:09.093Z,8.83
2019-03-16T09:24:38.689Z,8.83
2019-03-16T09:27:09.038Z,8.87
2019-03-16T09:29:38.984Z,8.78
2019-03-16T09:32:08.924Z,8.88
2019-03-16T09:34:38.785Z,8.94
2019-03-16T09:37:08.741Z,8.79
2019-03-16T09:39:38.434Z,8.75
2019-03-16T09:42:08.464Z,8.78
2019-03-16T09:44:38.293Z,8.72
2019-03-16T09:47:08.277Z,8.72
2019-03-16T09:49:41.174Z,8.78
2019-03-16T09:52:11.684Z,8.77
2019-03-16T09:54:44.245Z,8.83
2019-03-16T09:57:18.349Z,9.03
2019-03-16T09:59:48.139Z,9.03
2019-03-16T10:02:18.049Z,9.04
2019-03-16T10:04:47.916Z,9.07
2019-03-16T10:07:17.455Z,9.04
2019-03-16T10:09:47.638Z,9.01
2019-03-16T10:12:17.272Z,9.01
2019-03-16T10:14:55.591Z,9.06
2019-03-16T10:17:36.354Z,9.06
2019-03-16T10:20:06.791Z,9.17
2019-03-16T10:22:36.953Z,9.17
2019-03-16T10:25:07.014Z,9.21
2019-03-16T10:27:36.714Z,9.14
2019-03-16T10:30:07.763Z,9.12
2019-03-16T10:32:37.451Z,9.14
2019-03-16T10:35:08.144Z,9.19
2019-03-16T10:37:38.193Z,9.07
2019-03-16T10:40:11.445Z,9.17
2019-03-16T10:42:41.063Z,9.03
2019-03-16T10:45:12.457Z,9.13
2019-03-16T10:47:42.352Z,9.13
2019-03-16T10:50:12.704Z,9.23
2019-03-16T10:52:42.355Z,9.11
2019-03-16T10:55:12.403Z,9.18
2019-03-16T10:57:42.500Z,9.18
2019-03-16T11:00:12.680Z,9.20
2019-03-16T11:02:45.275Z,9.41
2019-03-16T11:05:15.491Z,9.41
2019-03-16T11:07:45.023Z,9.29
2019-03-16T11:10:15.291Z,9.41
2019-03-16T11:12:45.417Z,9.60
2019-03-16T11:15:15.494Z,9.60
2019-03-16T11:17:45.563Z,9.89
2019-03-16T11:20:15.140Z,9.52
2019-03-16T11:22:45.181Z,9.52
2019-03-16T11:25:15.299Z,9.62
2019-03-16T11:27:45.152Z,9.62
2019-03-16T11:30:15.516Z,9.55
2019-03-16T11:32:45.200Z,9.45
2019-03-16T11:35:14.777Z,9.45
2019-03-16T11:37:45.012Z,9.65
2019-03-16T11:40:17.116Z,9.65
2019-03-16T11:42:47.563Z,9.56
2019-03-16T11:45:17.631Z,9.74
2019-03-16T11:47:47.374Z,9.74
2019-03-16T11:50:17.723Z,9.73
2019-03-16T11:52:47.389Z,9.73
2019-03-16T11:55:19.150Z,9.67
2019-03-16T11:57:48.867Z,9.61
2019-03-16T12:00:18.505Z,9.60
2019-03-16T12:02:48.323Z,9.67
2019-03-16T12:05:18.435Z,9.59
2019-03-16T12:07:48.665Z,9.62
2019-03-16T12:10:18.514Z,9.67
2019-03-16T12:12:48.487Z,9.70
2019-03-16T12:15:20.489Z,9.70
2019-03-16T12:17:50.623Z,9.52
2019-03-16T12:20:21.304Z,9.65
2019-03-16T12:22:51.212Z,9.65
2019-03-16T12:25:21.510Z,9.46
2019-03-16T12:27:51.337Z,9.47
2019-03-16T12:30:22.185Z,9.34
2019-03-16T12:32:51.849Z,9.37
2019-03-16T12:35:22.155Z,9.39
2019-03-16T12:38:01.034Z,9.47
2019-03-16T12:40:31.691Z,9.47
2019-03-16T12:43:03.151Z,9.36
2019-03-16T12:45:32.986Z,9.36
2019-03-16T12:48:02.506Z,9.44
2019-03-16T12:50:33.129Z,9.29
2019-03-16T12:53:03.000Z,9.44
2019-03-16T12:55:32.653Z,9.36
2019-03-16T12:58:06.549Z,9.40
2019-03-16T13:00:36.319Z,9.32
2019-03-16T13:03:06.282Z,9.53
2019-03-16T13:05:50.869Z,9.53
2019-03-16T13:08:20.970Z,9.37
2019-03-16T13:10:51.464Z,9.53
2019-03-16T13:13:22.469Z,9.36
2019-03-16T13:15:52.521Z,9.29
2019-03-16T13:18:25.950Z,9.25
2019-03-16T13:21:00.049Z,9.44
2019-03-16T13:23:32.652Z,9.49
2019-03-16T13:26:07.098Z,9.49
2019-03-16T13:28:39.528Z,9.43
2019-03-16T13:31:09.659Z,9.25
2019-03-16T13:33:41.989Z,9.44
2019-03-16T13:36:11.504Z,9.38
2019-03-16T13:38:42.786Z,9.42
2019-03-16T13:41:13.401Z,9.42
2019-03-16T13:43:43.518Z,9.42
2019-03-16T13:46:13.262Z,9.39
2019-03-16T13:48:44.622Z,9.42
2019-03-16T13:51:15.530Z,9.29
2019-03-16T13:53:45.317Z,9.36
2019-03-16T13:56:15.885Z,9.36
2019-03-16T13:58:47.042Z,9.30
2019-03-16T14:01:16.591Z,9.35
2019-03-16T14:03:47.770Z,9.41
2019-03-16T14:06:18.153Z,9.34
2019-03-16T14:08:47.873Z,9.30
2019-03-16T14:11:19.101Z,9.30
2019-03-16T14:13:49.129Z,9.25
2019-03-16T14:16:21.116Z,9.25
2019-03-16T14:18:50.999Z,9.25
2019-03-16T14:21:21.033Z,9.35
2019-03-16T14:23:51.001Z,9.36
2019-03-16T14:26:21.055Z,9.37
2019-03-16T14:28:50.942Z,9.24
2019-03-16T14:31:21.088Z,9.24
2019-03-16T14:33:51.348Z,9.41
2019-03-16T14:36:21.292Z,9.33
2019-03-16T14:38:51.201Z,9.41
2019-03-16T14:41:20.896Z,9.24
2019-03-16T14:43:52.311Z,9.34
2019-03-16T14:46:22.148Z,9.34
2019-03-16T14:48:52.040Z,9.63
2019-03-16T14:51:24.683Z,9.37
2019-03-16T14:53:53.697Z,9.56
2019-03-16T14:56:25.109Z,9.44
2019-03-16T14:58:56.332Z,9.75
2019-03-16T15:01:26.498Z,9.61
2019-03-16T15:03:56.011Z,9.67
2019-03-16T15:06:26.209Z,9.67
2019-03-16T15:08:56.032Z,9.56
2019-03-16T15:11:26.029Z,9.86
2019-03-16T15:13:56.654Z,9.62
2019-03-16T15:16:33.743Z,9.62
2019-03-16T15:19:04.133Z,9.73
2019-03-16T15:21:34.107Z,9.64
2019-03-16T15:24:04.945Z,9.64
2019-03-16T15:26:35.145Z,9.70
2019-03-16T15:29:12.272Z,9.66
2019-03-16T15:31:41.959Z,9.66
2019-03-16T15:34:11.716Z,9.64
2019-03-16T15:36:41.364Z,9.64
2019-03-16T15:39:11.815Z,9.56
2019-03-16T15:41:41.331Z,9.63
2019-03-16T15:44:11.768Z,9.60
2019-03-16T15:46:41.631Z,9.60
2019-03-16T15:49:17.383Z,9.56
2019-03-16T15:51:47.079Z,9.56
2019-03-16T15:54:17.171Z,9.61
2019-03-16T15:56:47.321Z,9.62
2019-03-16T15:59:17.944Z,9.68
2019-03-16T16:01:56.452Z,9.63
2019-03-16T16:04:30.289Z,9.63
2019-03-16T16:07:00.658Z,9.47
2019-03-16T16:09:30.267Z,9.41
2019-03-16T16:12:05.033Z,9.53
2019-03-16T16:14:34.937Z,9.56
2019-03-16T16:17:07.233Z,9.63
2019-03-16T16:19:37.655Z,9.79
2019-03-16T16:22:07.298Z,9.71
2019-03-16T16:24:37.160Z,9.71
2019-03-16T16:27:07.322Z,9.59
2019-03-16T16:29:37.193Z,9.67
2019-03-16T16:32:07.044Z,9.67
2019-03-16T16:34:36.840Z,9.69
2019-03-16T16:37:07.159Z,9.69
2019-03-16T16:39:37.324Z,9.52
2019-03-16T16:42:07.290Z,9.52
2019-03-16T16:44:37.497Z,9.57
2019-03-16T16:47:08.030Z,9.55
2019-03-16T16:49:37.759Z,9.71
2019-03-16T16:52:07.404Z,9.51
2019-03-16T16:54:38.056Z,9.51
2019-03-16T16:57:10.398Z,9.57
2019-03-16T16:59:40.485Z,9.46
2019-03-16T17:02:11.493Z,9.46
2019-03-16T17:04:41.084Z,9.42
2019-03-16T17:07:11.024Z,9.42
2019-03-16T17:09:43.078Z,9.50
2019-03-16T17:12:12.805Z,9.48
2019-03-16T17:14:42.672Z,9.37
2019-03-16T17:17:13.225Z,9.37
2019-03-16T17:19:43.371Z,9.38
2019-03-16T17:22:13.015Z,9.38
2019-03-16T17:24:43.090Z,9.41
2019-03-16T17:27:12.991Z,9.39
2019-03-16T17:29:44.345Z,9.41
2019-03-16T17:32:14.046Z,9.32
2019-03-16T17:34:44.297Z,9.59
2019-03-16T17:37:14.506Z,9.25
2019-03-16T17:39:44.930Z,9.24
2019-03-16T17:42:17.634Z,9.27
2019-03-16T17:44:51.170Z,9.27
2019-03-16T17:47:21.432Z,9.26
2019-03-16T17:49:51.596Z,9.33
2019-03-16T17:52:21.176Z,9.21
2019-03-16T17:54:50.877Z,9.31
2019-03-16T17:57:20.774Z,9.31
2019-03-16T17:59:50.582Z,9.29
2019-03-16T18:02:21.051Z,9.21
2019-03-16T18:04:50.818Z,9.21
2019-03-16T18:07:21.661Z,9.21
2019-03-16T18:09:51.452Z,9.22
2019-03-16T18:12:21.328Z,9.21
2019-03-16T18:14:51.582Z,9.25
2019-03-16T18:17:24.145Z,9.16
2019-03-16T18:19:54.059Z,9.14
2019-03-16T18:22:23.993Z,9.06
2019-03-16T18:24:53.773Z,9.08
2019-03-16T18:27:23.873Z,9.05
2019-03-16T18:29:53.913Z,9.18
2019-03-16T18:32:24.033Z,9.10
2019-03-16T18:34:53.837Z,9.09
2019-03-16T18:37:26.479Z,9.01
2019-03-16T18:39:59.231Z,9.15
2019-03-16T18:42:28.975Z,9.15
2019-03-16T18:44:58.781Z,8.99
2019-03-16T18:47:28.722Z,9.00
2019-03-16T18:49:58.205Z,8.99
2019-03-16T18:52:28.514Z,8.99
2019-03-16T18:55:02.155Z,8.99
2019-03-16T18:57:33.804Z,9.07
2019-03-16T19:00:03.733Z,9.07
2019-03-16T19:02:34.234Z,8.98
2019-03-16T19:05:05.991Z,8.98
2019-03-16T19:07:36.132Z,8.96
2019-03-16T19:10:06.349Z,8.85
2019-03-16T19:12:35.909Z,8.85
2019-03-16T19:15:05.982Z,8.96
2019-03-16T19:17:35.962Z,8.99
2019-03-16T19:20:05.729Z,9.00
2019-03-16T19:22:35.878Z,9.00
2019-03-16T19:25:05.847Z,9.00
2019-03-16T19:27:37.141Z,8.90
2019-03-16T19:30:08.555Z,8.90
2019-03-16T19:32:38.345Z,8.91
2019-03-16T19:35:08.252Z,8.85
2019-03-16T19:37:38.193Z,8.89
2019-03-16T19:40:09.682Z,8.87
2019-03-16T19:42:40.198Z,8.85
2019-03-16T19:45:11.338Z,8.91
2019-03-16T19:47:41.544Z,8.82
2019-03-16T19:50:12.054Z,8.77
2019-03-16T19:52:42.920Z,8.82
2019-03-16T19:55:12.768Z,8.74
2019-03-16T19:57:42.923Z,8.74
2019-03-16T20:00:13.592Z,8.82
2019-03-16T20:02:51.567Z,8.80
2019-03-16T20:05:17.657Z,8.80
2019-03-16T20:07:47.391Z,8.75
2019-03-16T20:10:17.179Z,8.79
2019-03-16T20:12:47.142Z,8.78
2019-03-16T20:15:17.538Z,8.72
2019-03-16T20:17:47.455Z,8.79
2019-03-16T20:20:17.003Z,8.71
2019-03-16T20:22:46.648Z,8.71
2019-03-16T20:25:17.139Z,8.69
2019-03-16T20:27:52.616Z,8.69
2019-03-16T20:30:45.831Z,8.69
2019-03-16T20:33:22.235Z,8.74
2019-03-16T20:35:52.092Z,8.61
2019-03-16T20:38:22.566Z,8.61
2019-03-16T20:40:52.644Z,8.53
2019-03-16T20:43:22.809Z,8.59
2019-03-16T20:45:55.959Z,8.59
2019-03-16T20:48:25.736Z,8.59
2019-03-16T20:50:55.305Z,8.56
2019-03-16T20:53:25.089Z,8.53
2019-03-16T20:55:57.962Z,8.57
2019-03-16T20:58:28.427Z,8.47
2019-03-16T21:00:58.621Z,8.55
2019-03-16T21:03:33.806Z,8.55
2019-03-16T21:06:12.353Z,8.44
2019-03-16T21:09:04.003Z,8.41
2019-03-16T21:11:33.601Z,8.39
2019-03-16T21:14:03.431Z,8.39
2019-03-16T21:16:33.473Z,8.46
2019-03-16T21:19:04.049Z,8.45
2019-03-16T21:21:35.772Z,8.33
2019-03-16T21:24:07.550Z,8.31
2019-03-16T21:26:37.353Z,8.45
2019-03-16T21:29:11.608Z,8.45
2019-03-16T21:31:42.247Z,8.35
2019-03-16T21:34:12.347Z,8.35
2019-03-16T21:36:42.326Z,8.40
2019-03-16T21:39:12.025Z,8.32
2019-03-16T21:41:44.285Z,8.31
2019-03-16T21:44:13.672Z,8.31
2019-03-16T21:46:43.972Z,8.31
2019-03-16T21:49:14.122Z,8.25
2019-03-16T21:51:50.355Z,8.34
2019-03-16T21:54:22.625Z,8.32
2019-03-16T21:57:01.186Z,8.39
2019-03-16T21:59:30.934Z,8.39
2019-03-16T22:02:01.677Z,8.29
2019-03-16T22:04:35.710Z,8.29
2019-03-16T22:07:05.926Z,8.33
2019-03-16T22:09:36.428Z,8.31
2019-03-16T22:12:06.191Z,8.32
2019-03-16T22:14:38.154Z,8.32
2019-03-16T22:17:08.269Z,8.31
2019-03-16T22:19:38.069Z,8.34
2019-03-16T22:22:08.027Z,8.30
2019-03-16T22:24:37.695Z,8.30
2019-03-16T22:27:07.481Z,8.37
2019-03-16T22:29:37.319Z,8.37
2019-03-16T22:32:07.520Z,8.30
2019-03-16T22:34:37.531Z,8.35
2019-03-16T22:37:07.773Z,8.33
2019-03-16T22:39:37.870Z,8.33
2019-03-16T22:42:08.916Z,8.41
2019-03-16T22:44:39.097Z,8.41
2019-03-16T22:47:09.963Z,8.32
2019-03-16T22:49:39.804Z,8.39
2019-03-16T22:52:09.724Z,8.38
2019-03-16T22:54:39.959Z,8.42
2019-03-16T22:57:09.931Z,8.36
2019-03-16T22:59:40.068Z,8.36
2019-03-16T23:02:10.392Z,8.43
2019-03-16T23:04:40.316Z,8.30
2019-03-16T23:07:10.094Z,8.42
2019-03-16T23:09:39.975Z,8.44
2019-03-16T23:12:09.736Z,8.40
2019-03-16T23:14:39.871Z,8.40
2019-03-16T23:17:10.556Z,8.52
2019-03-16T23:19:40.092Z,8.52
2019-03-16T23:22:10.003Z,8.50
2019-03-16T23:24:39.754Z,8.46
2019-03-16T23:27:10.034Z,8.49
2019-03-16T23:29:40.215Z,8.47
2019-03-16T23:32:09.996Z,8.47
2019-03-16T23:34:39.670Z,8.45
2019-03-16T23:37:10.104Z,8.60
2019-03-16T23:39:40.329Z,8.53
2019-03-16T23:42:10.620Z,8.61
2019-03-16T23:44:40.757Z,8.61
2019-03-16T23:47:10.657Z,8.55
2019-03-16T23:49:40.656Z,8.60
2019-03-16T23:52:10.757Z,8.60
2019-03-16T23:54:41.058Z,8.62
2019-03-16T23:57:10.966Z,8.59
2019-03-16T23:59:40.645Z,8.68
